Enter the Airport ICAO Code

Search by Airport or City

Current Weather

LEPP | Pamplona Airport

Pamplona, Navarre, Spain

Last Update 10 Minutes Ago

Partly Cloudy Sky

Temperature of 18 ºC

Moderate Winds from North

Temperature

18 ºC

Dew Point Temperature

09 ºC

Relative Humidity

55.81 %

Wind Direction

North (010º, Ranging from 330º to 060º)

Wind Velocity

22 km/h (12 kt)

Gusts

None

Visibility

Greater than 10 Kilometers

Sea Level Pressure

1025 hPa (Hectopascals)

Layers of Clouds

5% to 30% of Sky Covered from 610 mts (2000 ft) Above Ground Level.

30% to 60% of Sky Covered from 1189 mts (3900 ft) Above Ground Level.

METAR LEPP 211330Z 01012KT 330V060 9999 FEW020 SCT039 18/09 Q1025

Weather Forecast

LEPP | Pamplona Airport

Pamplona, Navarre, Spain

Forecast valid for the next 19 Hours

From now on it is expected:

Partly Cloudy Sky

Light to Moderate Winds from North

From now on it is expected 6 hours with intermittent periods of:

Sky with Few Clouds

Moderate Winds from North with Gusts

Maximum Temperature

20 ºC in -1 Hours

Minimum Temperature

10 ºC in 16 Hours

TAF LEPP 210800Z 2109/2209 35009KT 9999 FEW025 SCT040 TX20/2113Z TN10/2206Z TEMPO 2109/2120 35015G25KT FEW040TCU